sensor_id;sensor_type;location;lat;lon;timestamp;pressure;altitude;pressure_sealevel;temperature;humidity
5595;BME280;1003;48.002;7.788;2024-01-10T00:01:49;99975.25;;;-2.82;100.00
5595;BME280;1003;48.002;7.788;2024-01-10T00:04:16;99974.56;;;-2.80;100.00
5595;BME280;1003;48.002;7.788;2024-01-10T00:06:43;99977.13;;;-2.78;100.00
5595;BME280;1003;48.002;7.788;2024-01-10T00:09:11;99965.44;;;-2.82;100.00
5595;BME280;1003;48.002;7.788;2024-01-10T00:11:38;99972.81;;;-2.82;100.00
5595;BME280;1003;48.002;7.788;2024-01-10T00:14:05;99975.19;;;-2.84;100.00
5595;BME280;1003;48.002;7.788;2024-01-10T00:16:32;99971.78;;;-2.86;100.00
5595;BME280;1003;48.002;7.788;2024-01-10T00:18:59;99959.06;;;-2.94;100.00
5595;BME280;1003;48.002;7.788;2024-01-10T00:21:28;99972.28;;;-2.92;100.00
5595;BME280;1003;48.002;7.788;2024-01-10T00:23:55;99969.09;;;-2.91;100.00
5595;BME280;1003;48.002;7.788;2024-01-10T00:26:25;99963.97;;;-2.94;100.00
5595;BME280;1003;48.002;7.788;2024-01-10T00:28:55;99955.56;;;-2.97;100.00
5595;BME280;1003;48.002;7.788;2024-01-10T00:31:21;99959.06;;;-2.94;100.00
5595;BME280;1003;48.002;7.788;2024-01-10T00:33:48;99962.44;;;-2.92;100.00
5595;BME280;1003;48.002;7.788;2024-01-10T00:36:15;99966.19;;;-2.98;100.00
5595;BME280;1003;48.002;7.788;2024-01-10T00:38:42;99958.81;;;-2.98;100.00
5595;BME280;1003;48.002;7.788;2024-01-10T00:41:09;99960.75;;;-2.93;100.00
5595;BME280;1003;48.002;7.788;2024-01-10T00:43:38;99969.66;;;-2.95;100.00
5595;BME280;1003;48.002;7.788;2024-01-10T00:46:05;99965.00;;;-3.05;100.00
5595;BME280;1003;48.002;7.788;2024-01-10T00:48:32;99966.03;;;-3.01;100.00
5595;BME280;1003;48.002;7.788;2024-01-10T00:50:59;99968.47;;;-3.01;100.00
5595;BME280;1003;48.002;7.788;2024-01-10T00:53:26;99958.53;;;-3.03;100.00
5595;BME280;1003;48.002;7.788;2024-01-10T00:55:53;99967.88;;;-2.97;100.00
5595;BME280;1003;48.002;7.788;2024-01-10T00:58:20;99972.38;;;-3.05;100.00
5595;BME280;1003;48.002;7.788;2024-01-10T01:00:48;99963.19;;;-3.07;100.00
5595;BME280;1003;48.002;7.788;2024-01-10T01:03:15;99974.56;;;-3.09;100.00
5595;BME280;1003;48.002;7.788;2024-01-10T01:05:42;99978.97;;;-3.04;100.00
5595;BME280;1003;48.002;7.788;2024-01-10T01:08:09;99969.91;;;-3.05;100.00
5595;BME280;1003;48.002;7.788;2024-01-10T01:10:36;99964.91;;;-3.06;100.00
5595;BME280;1003;48.002;7.788;2024-01-10T01:13:03;99975.25;;;-3.12;100.00
5595;BME280;1003;48.002;7.788;2024-01-10T01:15:30;99975.81;;;-3.16;100.00
5595;BME280;1003;48.002;7.788;2024-01-10T01:17:58;99978.09;;;-3.19;100.00
5595;BME280;1003;48.002;7.788;2024-01-10T01:20:25;99974.63;;;-3.23;100.00
5595;BME280;1003;48.002;7.788;2024-01-10T01:22:52;99987.28;;;-3.17;100.00
5595;BME280;1003;48.002;7.788;2024-01-10T01:25:19;99984.91;;;-3.15;100.00
5595;BME280;1003;48.002;7.788;2024-01-10T01:27:46;99980.63;;;-3.18;100.00
5595;BME280;1003;48.002;7.788;2024-01-10T01:30:13;99990.47;;;-3.18;100.00
5595;BME280;1003;48.002;7.788;2024-01-10T01:32:40;99996.06;;;-3.20;100.00
5595;BME280;1003;48.002;7.788;2024-01-10T01:35:08;99996.66;;;-3.24;100.00
5595;BME280;1003;48.002;7.788;2024-01-10T01:37:35;100002.13;;;-3.28;100.00
5595;BME280;1003;48.002;7.788;2024-01-10T01:40:03;100003.38;;;-3.22;100.00
5595;BME280;1003;48.002;7.788;2024-01-10T01:42:30;99999.28;;;-3.21;100.00
5595;BME280;1003;48.002;7.788;2024-01-10T01:44:57;99994.19;;;-3.24;100.00
5595;BME280;1003;48.002;7.788;2024-01-10T01:47:24;100003.09;;;-3.26;100.00
5595;BME280;1003;48.002;7.788;2024-01-10T01:49:52;100009.44;;;-3.30;100.00
5595;BME280;1003;48.002;7.788;2024-01-10T01:52:21;100008.59;;;-3.30;100.00
5595;BME280;1003;48.002;7.788;2024-01-10T01:54:48;100017.31;;;-3.35;100.00
5595;BME280;1003;48.002;7.788;2024-01-10T01:57:15;100020.72;;;-3.33;100.00
5595;BME280;1003;48.002;7.788;2024-01-10T01:59:42;100019.09;;;-3.33;100.00
5595;BME280;1003;48.002;7.788;2024-01-10T02:02:11;100029.66;;;-3.34;100.00
5595;BME280;1003;48.002;7.788;2024-01-10T02:04:40;99984.44;;;-3.37;100.00
5595;BME280;1003;48.002;7.788;2024-01-10T02:07:07;99983.22;;;-3.44;100.00
5595;BME280;1003;48.002;7.788;2024-01-10T02:09:35;99993.44;;;-3.51;100.00
5595;BME280;1003;48.002;7.788;2024-01-10T02:12:04;99985.63;;;-3.59;100.00
5595;BME280;1003;48.002;7.788;2024-01-10T02:14:31;99995.94;;;-3.64;100.00
5595;BME280;1003;48.002;7.788;2024-01-10T02:16:57;99998.97;;;-3.68;100.00
5595;BME280;1003;48.002;7.788;2024-01-10T02:19:24;100002.28;;;-3.68;100.00
5595;BME280;1003;48.002;7.788;2024-01-10T02:21:52;100008.31;;;-3.63;100.00
5595;BME280;1003;48.002;7.788;2024-01-10T02:24:19;100013.31;;;-3.61;100.00
5595;BME280;1003;48.002;7.788;2024-01-10T02:26:48;100019.53;;;-3.53;100.00
5595;BME280;1003;48.002;7.788;2024-01-10T02:29:15;100021.84;;;-3.41;100.00
5595;BME280;1003;48.002;7.788;2024-01-10T02:31:42;100020.31;;;-3.26;100.00
5595;BME280;1003;48.002;7.788;2024-01-10T02:34:09;100020.56;;;-3.22;100.00
5595;BME280;1003;48.002;7.788;2024-01-10T02:36:36;100022.63;;;-3.14;100.00
5595;BME280;1003;48.002;7.788;2024-01-10T02:39:03;100026.47;;;-3.05;100.00
5595;BME280;1003;48.002;7.788;2024-01-10T02:41:30;100023.03;;;-3.07;100.00
5595;BME280;1003;48.002;7.788;2024-01-10T02:43:58;100030.34;;;-3.08;100.00
5595;BME280;1003;48.002;7.788;2024-01-10T02:46:26;100028.06;;;-3.05;100.00
5595;BME280;1003;48.002;7.788;2024-01-10T02:48:54;100029.56;;;-3.07;100.00
5595;BME280;1003;48.002;7.788;2024-01-10T02:51:21;100028.84;;;-3.06;100.00
5595;BME280;1003;48.002;7.788;2024-01-10T02:53:48;100027.97;;;-3.07;100.00
5595;BME280;1003;48.002;7.788;2024-01-10T02:56:15;100035.09;;;-3.11;100.00
5595;BME280;1003;48.002;7.788;2024-01-10T02:58:42;100029.72;;;-3.19;100.00
5595;BME280;1003;48.002;7.788;2024-01-10T03:01:10;100031.88;;;-3.10;100.00
5595;BME280;1003;48.002;7.788;2024-01-10T03:03:37;100030.03;;;-3.00;100.00
5595;BME280;1003;48.002;7.788;2024-01-10T03:06:04;100033.91;;;-3.03;100.00
5595;BME280;1003;48.002;7.788;2024-01-10T03:08:31;100035.19;;;-3.10;100.00
5595;BME280;1003;48.002;7.788;2024-01-10T03:10:58;100035.97;;;-3.24;100.00
5595;BME280;1003;48.002;7.788;2024-01-10T03:13:26;100029.72;;;-3.19;100.00
5595;BME280;1003;48.002;7.788;2024-01-10T03:15:53;100030.16;;;-3.39;100.00
5595;BME280;1003;48.002;7.788;2024-01-10T03:18:21;100034.34;;;-3.52;100.00
5595;BME280;1003;48.002;7.788;2024-01-10T03:20:48;100029.50;;;-3.65;100.00
5595;BME280;1003;48.002;7.788;2024-01-10T03:23:14;100030.13;;;-3.67;100.00
5595;BME280;1003;48.002;7.788;2024-01-10T03:25:41;100031.59;;;-3.71;100.00
5595;BME280;1003;48.002;7.788;2024-01-10T03:28:08;100024.31;;;-3.83;100.00
5595;BME280;1003;48.002;7.788;2024-01-10T03:30:35;100023.66;;;-3.93;100.00
5595;BME280;1003;48.002;7.788;2024-01-10T03:33:02;100019.34;;;-3.98;100.00
5595;BME280;1003;48.002;7.788;2024-01-10T03:35:30;100027.63;;;-3.96;100.00
5595;BME280;1003;48.002;7.788;2024-01-10T03:37:57;100017.81;;;-3.96;100.00
5595;BME280;1003;48.002;7.788;2024-01-10T03:40:24;100022.63;;;-3.97;100.00
5595;BME280;1003;48.002;7.788;2024-01-10T03:42:51;100022.63;;;-3.97;100.00
5595;BME280;1003;48.002;7.788;2024-01-10T03:45:18;100019.97;;;-3.87;100.00
5595;BME280;1003;48.002;7.788;2024-01-10T03:47:48;100028.38;;;-3.83;100.00
5595;BME280;1003;48.002;7.788;2024-01-10T03:50:17;100026.28;;;-3.77;100.00
5595;BME280;1003;48.002;7.788;2024-01-10T03:52:46;100026.47;;;-3.74;100.00
5595;BME280;1003;48.002;7.788;2024-01-10T03:55:13;100028.16;;;-3.73;100.00
5595;BME280;1003;48.002;7.788;2024-01-10T03:57:41;100029.84;;;-3.72;100.00
5595;BME280;1003;48.002;7.788;2024-01-10T04:00:09;100033.63;;;-3.64;100.00
5595;BME280;1003;48.002;7.788;2024-01-10T04:02:37;100029.66;;;-3.62;100.00
5595;BME280;1003;48.002;7.788;2024-01-10T04:05:07;100028.41;;;-3.55;100.00
5595;BME280;1003;48.002;7.788;2024-01-10T04:07:36;100037.28;;;-3.44;100.00
5595;BME280;1003;48.002;7.788;2024-01-10T04:10:06;100038.22;;;-3.42;100.00
5595;BME280;1003;48.002;7.788;2024-01-10T04:12:36;100054.84;;;-3.38;100.00
5595;BME280;1003;48.002;7.788;2024-01-10T04:15:04;100050.22;;;-3.33;100.00
5595;BME280;1003;48.002;7.788;2024-01-10T04:17:31;100056.22;;;-3.28;100.00
5595;BME280;1003;48.002;7.788;2024-01-10T04:19:58;100062.25;;;-3.23;100.00
5595;BME280;1003;48.002;7.788;2024-01-10T04:22:25;100065.47;;;-3.24;100.00
5595;BME280;1003;48.002;7.788;2024-01-10T04:24:52;100060.56;;;-3.24;100.00
5595;BME280;1003;48.002;7.788;2024-01-10T04:27:21;100067.66;;;-3.29;100.00
5595;BME280;1003;48.002;7.788;2024-01-10T04:29:47;100055.97;;;-3.33;100.00
5595;BME280;1003;48.002;7.788;2024-01-10T04:32:15;100051.00;;;-3.48;100.00
5595;BME280;1003;48.002;7.788;2024-01-10T04:34:41;100057.03;;;-3.56;100.00
5595;BME280;1003;48.002;7.788;2024-01-10T04:37:08;100050.44;;;-3.57;100.00
5595;BME280;1003;48.002;7.788;2024-01-10T04:39:35;100051.00;;;-3.61;100.00
5595;BME280;1003;48.002;7.788;2024-01-10T04:42:04;100055.19;;;-3.60;100.00
5595;BME280;1003;48.002;7.788;2024-01-10T04:44:32;100059.69;;;-3.66;100.00
5595;BME280;1003;48.002;7.788;2024-01-10T04:46:59;100064.44;;;-3.69;100.00
5595;BME280;1003;48.002;7.788;2024-01-10T04:49:26;100062.75;;;-3.70;100.00
5595;BME280;1003;48.002;7.788;2024-01-10T04:51:54;100066.34;;;-3.65;100.00
5595;BME280;1003;48.002;7.788;2024-01-10T04:54:21;100075.78;;;-3.71;100.00
5595;BME280;1003;48.002;7.788;2024-01-10T04:56:48;100067.66;;;-3.70;100.00
5595;BME280;1003;48.002;7.788;2024-01-10T04:59:15;100064.25;;;-3.72;100.00
5595;BME280;1003;48.002;7.788;2024-01-10T05:01:43;100068.88;;;-3.63;100.00
5595;BME280;1003;48.002;7.788;2024-01-10T05:04:10;100062.63;;;-3.58;100.00
5595;BME280;1003;48.002;7.788;2024-01-10T05:06:37;100062.06;;;-3.54;100.00
5595;BME280;1003;48.002;7.788;2024-01-10T05:09:04;100072.16;;;-3.50;100.00
5595;BME280;1003;48.002;7.788;2024-01-10T05:11:32;100075.06;;;-3.42;100.00
5595;BME280;1003;48.002;7.788;2024-01-10T05:14:01;100072.69;;;-3.40;100.00
5595;BME280;1003;48.002;7.788;2024-01-10T05:16:28;100077.03;;;-3.36;100.00
5595;BME280;1003;48.002;7.788;2024-01-10T05:19:00;100083.75;;;-3.34;100.00
5595;BME280;1003;48.002;7.788;2024-01-10T05:21:28;100077.50;;;-3.29;100.00
5595;BME280;1003;48.002;7.788;2024-01-10T05:23:56;100076.16;;;-3.24;100.00
5595;BME280;1003;48.002;7.788;2024-01-10T05:26:23;100082.38;;;-3.15;100.00
5595;BME280;1003;48.002;7.788;2024-01-10T05:28:50;100086.34;;;-3.18;100.00
5595;BME280;1003;48.002;7.788;2024-01-10T05:31:17;100090.41;;;-3.18;100.00
5595;BME280;1003;48.002;7.788;2024-01-10T05:33:44;100091.19;;;-3.19;100.00
5595;BME280;1003;48.002;7.788;2024-01-10T05:36:12;100096.38;;;-3.14;100.00
5595;BME280;1003;48.002;7.788;2024-01-10T05:38:39;100088.16;;;-3.15;100.00
5595;BME280;1003;48.002;7.788;2024-01-10T05:41:07;100089.84;;;-3.14;100.00
5595;BME280;1003;48.002;7.788;2024-01-10T05:43:34;100085.78;;;-3.13;100.00
5595;BME280;1003;48.002;7.788;2024-01-10T05:46:01;100083.22;;;-3.15;100.00
5595;BME280;1003;48.002;7.788;2024-01-10T05:48:30;100081.06;;;-3.10;100.00
5595;BME280;1003;48.002;7.788;2024-01-10T05:50:57;100081.41;;;-3.04;100.00
5595;BME280;1003;48.002;7.788;2024-01-10T05:53:26;100075.72;;;-3.03;100.00
5595;BME280;1003;48.002;7.788;2024-01-10T05:55:52;100074.03;;;-3.04;100.00
5595;BME280;1003;48.002;7.788;2024-01-10T05:58:19;100077.31;;;-3.04;100.00
5595;BME280;1003;48.002;7.788;2024-01-10T06:00:46;100074.94;;;-3.02;100.00
5595;BME280;1003;48.002;7.788;2024-01-10T06:03:13;100072.50;;;-3.02;100.00
5595;BME280;1003;48.002;7.788;2024-01-10T06:05:40;100061.22;;;-2.99;100.00
5595;BME280;1003;48.002;7.788;2024-01-10T06:08:08;100072.00;;;-2.97;100.00
5595;BME280;1003;48.002;7.788;2024-01-10T06:10:36;100078.25;;;-3.02;100.00
5595;BME280;1003;48.002;7.788;2024-01-10T06:13:04;100078.44;;;-2.99;100.00
5595;BME280;1003;48.002;7.788;2024-01-10T06:15:31;100080.16;;;-2.98;100.00
5595;BME280;1003;48.002;7.788;2024-01-10T06:17:57;100081.19;;;-2.94;100.00
5595;BME280;1003;48.002;7.788;2024-01-10T06:20:25;100087.53;;;-2.98;100.00
5595;BME280;1003;48.002;7.788;2024-01-10T06:22:55;100075.06;;;-3.01;100.00
5595;BME280;1003;48.002;7.788;2024-01-10T06:25:22;100072.34;;;-3.05;100.00
5595;BME280;1003;48.002;7.788;2024-01-10T06:27:50;100071.22;;;-3.10;100.00
5595;BME280;1003;48.002;7.788;2024-01-10T06:30:17;100079.44;;;-3.10;100.00
5595;BME280;1003;48.002;7.788;2024-01-10T06:32:44;100074.31;;;-3.13;100.00
5595;BME280;1003;48.002;7.788;2024-01-10T06:35:11;100079.94;;;-3.15;100.00
5595;BME280;1003;48.002;7.788;2024-01-10T06:37:38;100075.84;;;-3.15;100.00
5595;BME280;1003;48.002;7.788;2024-01-10T06:40:06;100087.31;;;-3.15;100.00
5595;BME280;1003;48.002;7.788;2024-01-10T06:42:34;100086.63;;;-3.13;100.00
5595;BME280;1003;48.002;7.788;2024-01-10T06:45:03;100088.59;;;-3.07;100.00
5595;BME280;1003;48.002;7.788;2024-01-10T06:47:32;100089.47;;;-2.92;100.00
5595;BME280;1003;48.002;7.788;2024-01-10T06:49:59;100087.94;;;-3.05;100.00
5595;BME280;1003;48.002;7.788;2024-01-10T06:52:26;100093.00;;;-3.02;100.00
5595;BME280;1003;48.002;7.788;2024-01-10T06:54:53;100090.97;;;-3.09;100.00
5595;BME280;1003;48.002;7.788;2024-01-10T06:57:20;100084.13;;;-3.00;100.00
5595;BME280;1003;48.002;7.788;2024-01-10T06:59:47;100091.94;;;-2.92;100.00
5595;BME280;1003;48.002;7.788;2024-01-10T07:02:15;100096.09;;;-2.91;100.00
5595;BME280;1003;48.002;7.788;2024-01-10T07:04:42;100095.84;;;-2.96;100.00
5595;BME280;1003;48.002;7.788;2024-01-10T07:07:09;100102.63;;;-2.92;100.00
5595;BME280;1003;48.002;7.788;2024-01-10T07:09:37;100092.72;;;-2.93;100.00
5595;BME280;1003;48.002;7.788;2024-01-10T07:12:07;100100.00;;;-2.95;100.00
5595;BME280;1003;48.002;7.788;2024-01-10T07:14:34;100102.47;;;-2.95;100.00
5595;BME280;1003;48.002;7.788;2024-01-10T07:17:00;100105.00;;;-2.93;100.00
5595;BME280;1003;48.002;7.788;2024-01-10T07:19:29;100102.00;;;-3.02;100.00
5595;BME280;1003;48.002;7.788;2024-01-10T07:21:56;100109.84;;;-2.95;100.00
5595;BME280;1003;48.002;7.788;2024-01-10T07:24:23;100115.69;;;-2.93;100.00
5595;BME280;1003;48.002;7.788;2024-01-10T07:26:50;100117.22;;;-2.95;100.00
5595;BME280;1003;48.002;7.788;2024-01-10T07:29:18;100103.22;;;-2.96;100.00
5595;BME280;1003;48.002;7.788;2024-01-10T07:31:45;100113.00;;;-2.82;100.00
5595;BME280;1003;48.002;7.788;2024-01-10T07:34:12;100118.13;;;-2.79;100.00
5595;BME280;1003;48.002;7.788;2024-01-10T07:36:43;100109.69;;;-2.83;100.00
5595;BME280;1003;48.002;7.788;2024-01-10T07:39:11;100117.34;;;-2.78;100.00
5595;BME280;1003;48.002;7.788;2024-01-10T07:41:41;100108.66;;;-2.86;100.00
5595;BME280;1003;48.002;7.788;2024-01-10T07:44:08;100114.06;;;-2.92;100.00
5595;BME280;1003;48.002;7.788;2024-01-10T07:46:35;100114.28;;;-3.02;100.00
5595;BME280;1003;48.002;7.788;2024-01-10T07:49:03;100119.84;;;-2.92;100.00
5595;BME280;1003;48.002;7.788;2024-01-10T07:51:31;100115.38;;;-2.84;100.00
5595;BME280;1003;48.002;7.788;2024-01-10T07:53:59;100105.47;;;-2.71;100.00
5595;BME280;1003;48.002;7.788;2024-01-10T07:56:26;100112.59;;;-2.75;100.00
5595;BME280;1003;48.002;7.788;2024-01-10T07:58:53;100114.19;;;-2.76;100.00
5595;BME280;1003;48.002;7.788;2024-01-10T08:01:23;100101.69;;;-2.66;100.00
5595;BME280;1003;48.002;7.788;2024-01-10T08:03:50;100108.13;;;-2.68;100.00
5595;BME280;1003;48.002;7.788;2024-01-10T08:06:17;100103.13;;;-2.54;100.00
5595;BME280;1003;48.002;7.788;2024-01-10T08:08:44;100106.88;;;-2.61;100.00
5595;BME280;1003;48.002;7.788;2024-01-10T08:11:12;100109.44;;;-2.45;100.00
5595;BME280;1003;48.002;7.788;2024-01-10T08:13:39;100097.13;;;-2.45;100.00
5595;BME280;1003;48.002;7.788;2024-01-10T08:16:06;100101.28;;;-2.44;100.00
5595;BME280;1003;48.002;7.788;2024-01-10T08:18:35;100099.59;;;-2.45;100.00
5595;BME280;1003;48.002;7.788;2024-01-10T08:21:02;100094.47;;;-2.48;100.00
5595;BME280;1003;48.002;7.788;2024-01-10T08:23:29;100097.19;;;-2.43;100.00
5595;BME280;1003;48.002;7.788;2024-01-10T08:25:57;100099.25;;;-2.51;100.00
5595;BME280;1003;48.002;7.788;2024-01-10T08:28:25;100142.00;;;-2.49;100.00
5595;BME280;1003;48.002;7.788;2024-01-10T08:30:53;100145.34;;;-2.33;100.00
5595;BME280;1003;48.002;7.788;2024-01-10T08:33:20;100134.81;;;-2.46;100.00
5595;BME280;1003;48.002;7.788;2024-01-10T08:35:47;100128.53;;;-2.41;100.00
5595;BME280;1003;48.002;7.788;2024-01-10T08:38:14;100129.69;;;-2.49;100.00
5595;BME280;1003;48.002;7.788;2024-01-10T08:40:41;100121.91;;;-2.56;100.00
5595;BME280;1003;48.002;7.788;2024-01-10T08:43:07;100134.63;;;-2.49;100.00
5595;BME280;1003;48.002;7.788;2024-01-10T08:45:36;100122.84;;;-2.40;100.00
5595;BME280;1003;48.002;7.788;2024-01-10T08:48:03;100109.97;;;-2.35;100.00
5595;BME280;1003;48.002;7.788;2024-01-10T08:50:32;100114.09;;;-2.34;100.00
5595;BME280;1003;48.002;7.788;2024-01-10T08:52:59;100114.63;;;-2.40;100.00
5595;BME280;1003;48.002;7.788;2024-01-10T08:55:29;100108.94;;;-2.24;100.00
5595;BME280;1003;48.002;7.788;2024-01-10T08:57:56;100108.75;;;-2.13;100.00
5595;BME280;1003;48.002;7.788;2024-01-10T09:00:23;100102.66;;;-2.04;100.00
5595;BME280;1003;48.002;7.788;2024-01-10T09:02:52;100105.19;;;-2.03;100.00
5595;BME280;1003;48.002;7.788;2024-01-10T09:05:19;100095.09;;;-1.93;100.00
5595;BME280;1003;48.002;7.788;2024-01-10T09:07:47;100092.88;;;-2.03;100.00
5595;BME280;1003;48.002;7.788;2024-01-10T09:10:16;100089.25;;;-2.09;100.00
5595;BME280;1003;48.002;7.788;2024-01-10T09:12:44;100085.06;;;-2.11;100.00
5595;BME280;1003;48.002;7.788;2024-01-10T09:15:12;100078.97;;;-2.17;100.00
5595;BME280;1003;48.002;7.788;2024-01-10T09:17:41;100078.69;;;-2.07;100.00
5595;BME280;1003;48.002;7.788;2024-01-10T09:20:10;100079.41;;;-2.09;100.00
5595;BME280;1003;48.002;7.788;2024-01-10T09:22:37;100069.16;;;-2.01;100.00
5595;BME280;1003;48.002;7.788;2024-01-10T09:25:05;100065.72;;;-2.04;100.00
5595;BME280;1003;48.002;7.788;2024-01-10T09:27:33;100031.31;;;-2.03;100.00
5595;BME280;1003;48.002;7.788;2024-01-10T09:30:07;100054.09;;;-1.76;100.00
5595;BME280;1003;48.002;7.788;2024-01-10T09:32:37;100020.53;;;-1.74;100.00
5595;BME280;1003;48.002;7.788;2024-01-10T09:35:10;100042.16;;;-1.68;100.00
5595;BME280;1003;48.002;7.788;2024-01-10T09:37:39;100057.78;;;-1.37;100.00
5595;BME280;1003;48.002;7.788;2024-01-10T09:40:10;100043.16;;;-1.17;100.00
5595;BME280;1003;48.002;7.788;2024-01-10T09:42:43;100039.91;;;-1.00;100.00
5595;BME280;1003;48.002;7.788;2024-01-10T09:45:11;100016.03;;;-1.01;100.00
5595;BME280;1003;48.002;7.788;2024-01-10T09:47:43;100020.19;;;-1.16;100.00
5595;BME280;1003;48.002;7.788;2024-01-10T09:50:17;100021.28;;;-1.11;100.00
5595;BME280;1003;48.002;7.788;2024-01-10T09:52:53;100027.91;;;-1.10;100.00
5595;BME280;1003;48.002;7.788;2024-01-10T09:55:23;100024.28;;;-1.00;100.00
5595;BME280;1003;48.002;7.788;2024-01-10T09:57:52;100013.81;;;-1.29;100.00
5595;BME280;1003;48.002;7.788;2024-01-10T10:00:22;100006.94;;;-1.02;100.00
5595;BME280;1003;48.002;7.788;2024-01-10T10:02:53;100003.25;;;-1.26;100.00
5595;BME280;1003;48.002;7.788;2024-01-10T10:05:27;100003.22;;;-1.10;100.00
5595;BME280;1003;48.002;7.788;2024-01-10T10:07:54;100010.03;;;-1.22;100.00
5595;BME280;1003;48.002;7.788;2024-01-10T10:10:21;100009.94;;;-1.24;100.00
5595;BME280;1003;48.002;7.788;2024-01-10T10:12:50;99890.03;;;-1.22;100.00
5595;BME280;1003;48.002;7.788;2024-01-10T10:15:20;99892.16;;;-1.12;100.00
5595;BME280;1003;48.002;7.788;2024-01-10T10:17:48;99892.59;;;-1.02;100.00
5595;BME280;1003;48.002;7.788;2024-01-10T10:20:21;99888.38;;;-0.87;100.00
5595;BME280;1003;48.002;7.788;2024-01-10T10:23:01;99891.13;;;-0.81;100.00
5595;BME280;1003;48.002;7.788;2024-01-10T10:25:30;99904.69;;;-0.91;100.00
5595;BME280;1003;48.002;7.788;2024-01-10T10:27:59;99911.84;;;-0.95;100.00
5595;BME280;1003;48.002;7.788;2024-01-10T10:30:26;99910.13;;;-1.14;100.00
5595;BME280;1003;48.002;7.788;2024-01-10T10:32:55;99902.47;;;-1.37;100.00
5595;BME280;1003;48.002;7.788;2024-01-10T10:35:22;99909.53;;;-1.26;100.00
5595;BME280;1003;48.002;7.788;2024-01-10T10:37:50;99900.22;;;-1.32;100.00
5595;BME280;1003;48.002;7.788;2024-01-10T10:40:21;99901.78;;;-1.50;100.00
5595;BME280;1003;48.002;7.788;2024-01-10T10:42:54;99907.56;;;-1.66;100.00
5595;BME280;1003;48.002;7.788;2024-01-10T10:45:22;99910.19;;;-1.63;100.00
5595;BME280;1003;48.002;7.788;2024-01-10T10:47:57;99911.66;;;-1.16;100.00
5595;BME280;1003;48.002;7.788;2024-01-10T10:50:30;99903.66;;;-1.12;100.00
5595;BME280;1003;48.002;7.788;2024-01-10T10:53:03;99908.53;;;-0.96;100.00
5595;BME280;1003;48.002;7.788;2024-01-10T10:55:34;99894.69;;;-1.10;100.00
5595;BME280;1003;48.002;7.788;2024-01-10T10:58:03;99903.38;;;-1.18;100.00
5595;BME280;1003;48.002;7.788;2024-01-10T11:00:32;99931.09;;;-0.88;100.00
5595;BME280;1003;48.002;7.788;2024-01-10T11:03:00;99940.91;;;-0.54;100.00
5595;BME280;1003;48.002;7.788;2024-01-10T11:05:30;99938.97;;;-0.25;100.00
5595;BME280;1003;48.002;7.788;2024-01-10T11:08:01;99941.50;;;-0.24;100.00
5595;BME280;1003;48.002;7.788;2024-01-10T11:10:34;99926.09;;;-0.18;100.00
5595;BME280;1003;48.002;7.788;2024-01-10T11:13:26;99912.75;;;-0.04;100.00
5595;BME280;1003;48.002;7.788;2024-01-10T11:16:35;99919.41;;;0.16;100.00
5595;BME280;1003;48.002;7.788;2024-01-10T11:19:32;99920.22;;;0.36;100.00
5595;BME280;1003;48.002;7.788;2024-01-10T11:22:21;99920.88;;;0.51;100.00
5595;BME280;1003;48.002;7.788;2024-01-10T11:24:54;99913.28;;;0.47;100.00
5595;BME280;1003;48.002;7.788;2024-01-10T11:27:22;99907.75;;;0.33;100.00
5595;BME280;1003;48.002;7.788;2024-01-10T11:29:50;99909.16;;;0.09;100.00
5595;BME280;1003;48.002;7.788;2024-01-10T11:32:22;99913.19;;;0.26;100.00
5595;BME280;1003;48.002;7.788;2024-01-10T11:34:54;99911.44;;;0.43;100.00
5595;BME280;1003;48.002;7.788;2024-01-10T11:37:22;99905.19;;;0.51;100.00
5595;BME280;1003;48.002;7.788;2024-01-10T11:39:51;99909.19;;;0.28;100.00
5595;BME280;1003;48.002;7.788;2024-01-10T11:42:23;99907.75;;;0.14;100.00
5595;BME280;1003;48.002;7.788;2024-01-10T11:44:51;99905.91;;;0.10;100.00
5595;BME280;1003;48.002;7.788;2024-01-10T11:47:19;99898.19;;;0.02;100.00
5595;BME280;1003;48.002;7.788;2024-01-10T11:49:57;99897.66;;;0.09;100.00
5595;BME280;1003;48.002;7.788;2024-01-10T11:52:33;99898.69;;;0.14;100.00
5595;BME280;1003;48.002;7.788;2024-01-10T11:55:00;99894.25;;;-0.12;100.00
5595;BME280;1003;48.002;7.788;2024-01-10T11:57:30;99903.59;;;-0.24;100.00
5595;BME280;1003;48.002;7.788;2024-01-10T11:59:59;99893.56;;;-0.10;100.00
5595;BME280;1003;48.002;7.788;2024-01-10T12:02:27;99901.91;;;0.12;100.00
5595;BME280;1003;48.002;7.788;2024-01-10T12:04:56;99893.22;;;0.21;100.00
5595;BME280;1003;48.002;7.788;2024-01-10T12:07:23;99893.38;;;0.24;100.00
5595;BME280;1003;48.002;7.788;2024-01-10T12:09:51;99889.72;;;0.36;100.00
5595;BME280;1003;48.002;7.788;2024-01-10T12:12:18;99883.34;;;0.21;100.00
5595;BME280;1003;48.002;7.788;2024-01-10T12:14:46;99891.88;;;0.28;100.00
5595;BME280;1003;48.002;7.788;2024-01-10T12:17:13;99888.69;;;0.31;100.00
5595;BME280;1003;48.002;7.788;2024-01-10T12:19:40;99891.16;;;0.31;100.00
5595;BME280;1003;48.002;7.788;2024-01-10T12:22:10;99899.03;;;0.41;100.00
5595;BME280;1003;48.002;7.788;2024-01-10T12:24:44;99895.00;;;0.43;100.00
5595;BME280;1003;48.002;7.788;2024-01-10T12:27:11;99881.75;;;0.43;100.00
5595;BME280;1003;48.002;7.788;2024-01-10T12:29:38;99888.63;;;0.29;100.00
5595;BME280;1003;48.002;7.788;2024-01-10T12:32:09;99891.16;;;0.31;100.00
5595;BME280;1003;48.002;7.788;2024-01-10T12:34:38;99888.88;;;0.16;100.00
5595;BME280;1003;48.002;7.788;2024-01-10T12:37:06;99889.25;;;-0.14;100.00
5595;BME280;1003;48.002;7.788;2024-01-10T12:39:33;99894.50;;;0.12;100.00
5595;BME280;1003;48.002;7.788;2024-01-10T12:42:04;99879.25;;;0.03;100.00
5595;BME280;1003;48.002;7.788;2024-01-10T12:44:36;99892.59;;;0.06;100.00
5595;BME280;1003;48.002;7.788;2024-01-10T12:47:03;99898.13;;;0.20;100.00
5595;BME280;1003;48.002;7.788;2024-01-10T12:49:31;99891.81;;;0.07;100.00
5595;BME280;1003;48.002;7.788;2024-01-10T12:51:58;99900.47;;;0.17;100.00
5595;BME280;1003;48.002;7.788;2024-01-10T12:54:25;99890.38;;;0.12;100.00
5595;BME280;1003;48.002;7.788;2024-01-10T12:56:52;99889.09;;;0.01;100.00
5595;BME280;1003;48.002;7.788;2024-01-10T12:59:19;99883.00;;;-0.06;100.00
5595;BME280;1003;48.002;7.788;2024-01-10T13:01:46;99882.19;;;0.13;100.00
5595;BME280;1003;48.002;7.788;2024-01-10T13:04:13;99884.91;;;0.00;100.00
5595;BME280;1003;48.002;7.788;2024-01-10T13:06:41;99894.88;;;0.02;100.00
5595;BME280;1003;48.002;7.788;2024-01-10T13:09:08;99884.72;;;0.15;100.00
5595;BME280;1003;48.002;7.788;2024-01-10T13:11:36;99886.47;;;0.17;100.00